Time;durP1;ratioP1;P1;durP2;ratioP2;P2;SDS_P1;SDS_P2;PMS_P1;PMS_P2;Temp;Humidity;BMP_temperature;BMP_pressure;BME280_temperature;BME280_humidity;BME280_pressure;Samples;Min_cycle;Max_cycle;Signal;HPM_P1;HPM_P2
2022/07/12 00:01:08;;;;;;;7.88;4.07;;;;;;;;;;5062025;28;20635;-79
2022/07/12 00:03:35;;;;;;;10.00;4.13;;;;;;;;;;5063315;28;20520;-78
2022/07/12 00:06:01;;;;;;;7.28;4.38;;;;;;;;;;5061619;28;20465;-78
2022/07/12 00:08:27;;;;;;;4.80;3.55;;;;;;;;;;5062550;28;20029;-79
2022/07/12 00:10:53;;;;;;;6.68;4.07;;;;;;;;;;5062503;28;20057;-78
2022/07/12 00:13:20;;;;;;;8.73;4.30;;;;;;;;;;5062065;28;20040;-78
2022/07/12 00:15:46;;;;;;;6.80;3.92;;;;;;;;;;5060287;28;20029;-78
2022/07/12 00:18:12;;;;;;;6.45;3.63;;;;;;;;;;5059688;28;20044;-77
2022/07/12 00:20:38;;;;;;;5.72;3.83;;;;;;;;;;5058703;28;20056;-80
2022/07/12 00:23:04;;;;;;;4.80;3.50;;;;;;;;;;5071399;28;20036;-79
2022/07/12 00:25:30;;;;;;;5.43;4.05;;;;;;;;;;5066039;28;20112;-80
2022/07/12 00:27:56;;;;;;;6.55;4.13;;;;;;;;;;5058814;28;20052;-79
2022/07/12 00:30:23;;;;;;;5.68;4.00;;;;;;;;;;5059683;28;20029;-79
2022/07/12 00:32:49;;;;;;;6.50;4.22;;;;;;;;;;5058508;28;20025;-77
2022/07/12 00:35:15;;;;;;;7.50;4.75;;;;;;;;;;5058441;28;20035;-77
2022/07/12 00:37:42;;;;;;;8.45;4.70;;;;;;;;;;5056828;28;20474;-78
2022/07/12 00:40:08;;;;;;;8.73;5.05;;;;;;;;;;5055740;28;20151;-76
2022/07/12 00:42:35;;;;;;;7.35;4.53;;;;;;;;;;5058900;28;20029;-77
2022/07/12 00:45:01;;;;;;;7.90;5.22;;;;;;;;;;5056990;28;20329;-78
2022/07/12 00:47:37;;;;;;;7.75;5.18;;;;;;;;;;5056823;28;20051;-77
2022/07/12 00:50:07;;;;;;;6.30;3.88;;;;;;;;;;5062869;28;20021;-78
2022/07/12 00:52:33;;;;;;;6.35;4.93;;;;;;;;;;5057011;28;20442;-77
2022/07/12 00:54:59;;;;;;;6.53;4.93;;;;;;;;;;5058179;28;20053;-77
2022/07/12 00:57:25;;;;;;;7.60;5.00;;;;;;;;;;5057337;28;20053;-78
2022/07/12 00:59:51;;;;;;;8.43;5.65;;;;;;;;;;5065822;28;20029;-78
2022/07/12 01:02:17;;;;;;;8.05;5.50;;;;;;;;;;5069616;28;20036;-76
2022/07/12 01:04:43;;;;;;;7.97;5.05;;;;;;;;;;5071096;28;20029;-77
2022/07/12 01:07:09;;;;;;;8.85;5.40;;;;;;;;;;5062817;28;20067;-77
2022/07/12 01:09:35;;;;;;;7.88;5.35;;;;;;;;;;5059729;28;20075;-77
2022/07/12 01:12:01;;;;;;;8.00;4.82;;;;;;;;;;5055222;28;20129;-78
2022/07/12 01:14:28;;;;;;;6.40;4.45;;;;;;;;;;5057016;28;20077;-78
2022/07/12 01:16:54;;;;;;;6.15;4.75;;;;;;;;;;5058411;28;20024;-77
2022/07/12 01:19:21;;;;;;;7.43;4.38;;;;;;;;;;5058028;28;20028;-76
2022/07/12 01:21:50;;;;;;;8.43;4.72;;;;;;;;;;5057634;28;20017;-78
2022/07/12 01:24:17;;;;;;;6.72;4.38;;;;;;;;;;5062360;28;20028;-77
2022/07/12 01:26:43;;;;;;;7.10;4.70;;;;;;;;;;5061456;28;20035;-77
2022/07/12 01:29:09;;;;;;;8.23;4.50;;;;;;;;;;5059121;28;20060;-77
2022/07/12 01:31:35;;;;;;;5.05;3.90;;;;;;;;;;5054683;28;20478;-77
2022/07/12 01:34:02;;;;;;;6.10;4.00;;;;;;;;;;5054294;28;20060;-77
2022/07/12 01:36:28;;;;;;;6.05;4.18;;;;;;;;;;5057920;28;20025;-78
2022/07/12 01:38:54;;;;;;;8.88;3.92;;;;;;;;;;5056346;28;20487;-77
2022/07/12 01:41:21;;;;;;;4.82;3.47;;;;;;;;;;5060235;28;20033;-76
2022/07/12 01:43:47;;;;;;;5.10;3.63;;;;;;;;;;5068319;28;20085;-78
2022/07/12 01:46:13;;;;;;;6.18;3.72;;;;;;;;;;5071509;28;20025;-77
2022/07/12 01:48:39;;;;;;;5.85;3.70;;;;;;;;;;5076318;28;20033;-76
2022/07/12 01:51:05;;;;;;;6.70;4.13;;;;;;;;;;5079015;28;20029;-77
2022/07/12 01:53:31;;;;;;;8.60;5.03;;;;;;;;;;5080735;28;20097;-76
2022/07/12 01:55:57;;;;;;;6.07;4.07;;;;;;;;;;5080694;28;20025;-77
2022/07/12 01:58:23;;;;;;;5.22;3.50;;;;;;;;;;5072643;28;20036;-78
2022/07/12 02:00:52;;;;;;;7.68;4.00;;;;;;;;;;5088498;22;20048;-74
2022/07/12 02:03:21;;;;;;;5.28;3.40;;;;;;;;;;5067718;28;20032;-74
2022/07/12 02:05:47;;;;;;;7.13;4.15;;;;;;;;;;5068071;28;20028;-75
2022/07/12 02:08:14;;;;;;;7.85;3.70;;;;;;;;;;5069366;28;20428;-74
2022/07/12 02:10:40;;;;;;;6.50;3.75;;;;;;;;;;5058771;28;20056;-74
2022/07/12 02:13:06;;;;;;;5.75;3.42;;;;;;;;;;5069072;28;20033;-74
2022/07/12 02:15:33;;;;;;;5.55;3.65;;;;;;;;;;5068060;28;20025;-75
2022/07/12 02:18:00;;;;;;;4.63;3.55;;;;;;;;;;5068135;28;20108;-74
2022/07/12 02:20:26;;;;;;;6.28;3.95;;;;;;;;;;5051349;28;20101;-74
2022/07/12 02:22:52;;;;;;;5.03;4.07;;;;;;;;;;5052113;28;20025;-74
2022/07/12 02:25:18;;;;;;;6.28;4.15;;;;;;;;;;5068084;28;20031;-74
2022/07/12 02:27:44;;;;;;;5.95;4.00;;;;;;;;;;5068087;28;20048;-74
2022/07/12 02:30:11;;;;;;;5.80;3.78;;;;;;;;;;5067922;28;20103;-74
2022/07/12 02:32:38;;;;;;;5.97;3.92;;;;;;;;;;5068454;28;20024;-73
2022/07/12 02:35:07;;;;;;;5.15;4.10;;;;;;;;;;5067962;28;20020;-74
2022/07/12 02:37:33;;;;;;;6.60;4.15;;;;;;;;;;5050841;28;20413;-73
2022/07/12 02:42:49;;;;;;;6.35;4.30;;;;;;;;;;5069404;28;20087;-75
2022/07/12 02:45:15;;;;;;;6.78;4.70;;;;;;;;;;5070513;28;20040;-77
2022/07/12 02:47:42;;;;;;;6.25;4.85;;;;;;;;;;5074383;28;20089;-74
2022/07/12 02:50:08;;;;;;;6.38;4.78;;;;;;;;;;5052360;28;20032;-75
2022/07/12 02:52:34;;;;;;;6.18;4.75;;;;;;;;;;5069489;28;20033;-74
2022/07/12 02:55:01;;;;;;;7.22;5.03;;;;;;;;;;5068298;28;20025;-74
2022/07/12 02:57:26;;;;;;;6.70;5.45;;;;;;;;;;5067532;28;20055;-73
2022/07/12 02:59:53;;;;;;;7.38;5.25;;;;;;;;;;5068321;28;20029;-74
2022/07/12 03:02:34;;;;;;;7.93;5.22;;;;;;;;;;5067784;28;20049;-74
2022/07/12 03:05:01;;;;;;;8.85;5.28;;;;;;;;;;5066610;28;20025;-74
2022/07/12 03:07:54;;;;;;;6.68;5.10;;;;;;;;;;5067048;28;20025;-74
2022/07/12 03:10:21;;;;;;;7.93;5.15;;;;;;;;;;5067803;28;20383;-74
2022/07/12 03:12:47;;;;;;;9.27;5.72;;;;;;;;;;5067483;28;20179;-74
2022/07/12 03:15:14;;;;;;;7.75;5.50;;;;;;;;;;5069243;28;20048;-74
2022/07/12 03:18:04;;;;;;;11.52;5.53;;;;;;;;;;5068010;28;20036;-75
2022/07/12 03:20:44;;;;;;;9.35;5.60;;;;;;;;;;5068855;28;20359;-75
2022/07/12 03:23:10;;;;;;;9.20;5.65;;;;;;;;;;5066658;28;20025;-74
2022/07/12 03:25:36;;;;;;;8.68;5.28;;;;;;;;;;5068330;28;20049;-75
2022/07/12 03:28:03;;;;;;;8.18;5.65;;;;;;;;;;5068035;28;20249;-74
2022/07/12 03:30:30;;;;;;;9.05;5.53;;;;;;;;;;5070056;28;20041;-75
2022/07/12 03:32:57;;;;;;;9.25;5.60;;;;;;;;;;5068452;28;20055;-74
2022/07/12 03:35:44;;;;;;;8.18;6.07;;;;;;;;;;5068976;28;20568;-75
2022/07/12 03:38:31;;;;;;;8.35;5.72;;;;;;;;;;5068401;28;20029;-75
2022/07/12 03:41:36;;;;;;;10.25;6.32;;;;;;;;;;5068576;28;20045;-75
2022/07/12 03:44:24;;;;;;;10.05;6.45;;;;;;;;;;5068726;28;20044;-75
2022/07/12 03:47:10;;;;;;;9.13;6.30;;;;;;;;;;5068345;28;20507;-74
2022/07/12 03:50:16;;;;;;;9.82;6.97;;;;;;;;;;5067717;28;20456;-75
2022/07/12 03:52:43;;;;;;;10.77;6.82;;;;;;;;;;5067096;28;20037;-75
2022/07/12 03:55:13;;;;;;;11.63;7.32;;;;;;;;;;5067241;28;20497;-76
2022/07/12 03:57:39;;;;;;;11.40;7.53;;;;;;;;;;5124709;22;20049;-75
2022/07/12 04:00:12;;;;;;;14.35;7.70;;;;;;;;;;5067993;28;20106;-75
2022/07/12 04:02:40;;;;;;;13.25;9.45;;;;;;;;;;5067771;28;20029;-76
2022/07/12 04:05:08;;;;;;;13.75;9.25;;;;;;;;;;5066178;28;20489;-75
2022/07/12 04:07:34;;;;;;;17.10;10.32;;;;;;;;;;5067628;28;20029;-75
2022/07/12 04:10:00;;;;;;;21.52;9.85;;;;;;;;;;5067262;28;20029;-74
2022/07/12 04:12:26;;;;;;;15.15;10.20;;;;;;;;;;5086599;22;20121;-75
2022/07/12 04:14:52;;;;;;;15.07;10.13;;;;;;;;;;5073912;28;20036;-78
2022/07/12 04:17:19;;;;;;;15.43;10.48;;;;;;;;;;5063469;28;20021;-78
2022/07/12 04:19:44;;;;;;;15.25;10.43;;;;;;;;;;5065896;28;20028;-79
2022/07/12 04:22:10;;;;;;;18.15;9.38;;;;;;;;;;5066188;28;20024;-78
2022/07/12 04:24:36;;;;;;;13.20;8.73;;;;;;;;;;5066440;28;20033;-78
2022/07/12 04:27:02;;;;;;;14.27;9.40;;;;;;;;;;5077519;28;20028;-76
2022/07/12 04:29:28;;;;;;;13.63;9.05;;;;;;;;;;5074820;28;20311;-76
2022/07/12 04:31:54;;;;;;;14.48;8.60;;;;;;;;;;5062013;28;20040;-79
2022/07/12 04:34:21;;;;;;;14.10;9.52;;;;;;;;;;5060265;28;20021;-78
2022/07/12 04:36:48;;;;;;;13.05;9.20;;;;;;;;;;5061836;28;20021;-78
2022/07/12 04:39:14;;;;;;;12.45;9.25;;;;;;;;;;5060419;28;20091;-81
2022/07/12 04:41:40;;;;;;;12.07;8.38;;;;;;;;;;5061233;28;20032;-80
2022/07/12 04:44:07;;;;;;;13.60;8.60;;;;;;;;;;5062534;28;20029;-78
2022/07/12 04:46:33;;;;;;;12.55;9.15;;;;;;;;;;5062618;28;20078;-79
2022/07/12 04:49:00;;;;;;;13.82;9.02;;;;;;;;;;5062408;28;20116;-78
2022/07/12 04:51:26;;;;;;;13.18;8.50;;;;;;;;;;5062300;28;20032;-78
2022/07/12 04:53:52;;;;;;;13.65;8.23;;;;;;;;;;5062044;28;20028;-82
2022/07/12 04:56:18;;;;;;;14.98;8.88;;;;;;;;;;5062383;28;20025;-82
2022/07/12 04:58:44;;;;;;;14.10;7.97;;;;;;;;;;5059667;28;20116;-79
2022/07/12 05:01:10;;;;;;;12.93;8.65;;;;;;;;;;5060424;28;20021;-79
2022/07/12 05:03:36;;;;;;;10.63;7.60;;;;;;;;;;5059313;28;20075;-78
2022/07/12 05:06:02;;;;;;;11.60;7.20;;;;;;;;;;5058326;28;20025;-79
2022/07/12 05:08:28;;;;;;;9.98;7.20;;;;;;;;;;5058729;28;20071;-81
2022/07/12 05:10:54;;;;;;;12.05;7.15;;;;;;;;;;5059336;28;20478;-79
2022/07/12 05:13:20;;;;;;;10.60;6.85;;;;;;;;;;5062014;28;20036;-79
2022/07/12 05:15:46;;;;;;;12.73;7.85;;;;;;;;;;5063220;28;20021;-80
2022/07/12 05:18:13;;;;;;;15.60;8.00;;;;;;;;;;5058467;28;20474;-78
2022/07/12 05:20:38;;;;;;;16.35;9.82;;;;;;;;;;5061110;28;20028;-78
2022/07/12 05:23:04;;;;;;;8.77;5.78;;;;;;;;;;5058586;28;20033;-81
2022/07/12 05:25:30;;;;;;;10.68;6.20;;;;;;;;;;5060072;28;20025;-82
2022/07/12 05:27:56;;;;;;;11.00;5.88;;;;;;;;;;5060549;28;20424;-78
2022/07/12 05:30:22;;;;;;;8.27;5.75;;;;;;;;;;5059006;28;20521;-78
2022/07/12 05:32:49;;;;;;;9.07;5.45;;;;;;;;;;5059489;28;20025;-80
2022/07/12 05:35:15;;;;;;;8.40;5.70;;;;;;;;;;5063064;28;20021;-78
2022/07/12 05:37:41;;;;;;;7.68;4.68;;;;;;;;;;5064705;28;20059;-79
2022/07/12 05:40:07;;;;;;;7.38;5.35;;;;;;;;;;5065916;28;20021;-81
2022/07/12 05:42:33;;;;;;;13.13;6.70;;;;;;;;;;5058457;28;20044;-80
2022/07/12 05:44:59;;;;;;;10.10;4.20;;;;;;;;;;5058546;28;20477;-79
2022/07/12 05:47:25;;;;;;;6.88;4.50;;;;;;;;;;5060098;28;20096;-78
2022/07/12 05:49:51;;;;;;;5.38;4.15;;;;;;;;;;5062272;28;20040;-78
2022/07/12 05:55:02;;;;;;;7.38;4.30;;;;;;;;;;5062527;28;20038;-79
2022/07/12 05:57:28;;;;;;;5.75;4.10;;;;;;;;;;5059365;28;20021;-79
2022/07/12 05:59:54;;;;;;;6.35;3.70;;;;;;;;;;5054715;28;20389;-80
2022/07/12 06:02:20;;;;;;;5.40;3.22;;;;;;;;;;5056769;28;20103;-77
2022/07/12 06:04:46;;;;;;;7.10;3.42;;;;;;;;;;5059976;28;20488;-78
2022/07/12 06:07:12;;;;;;;8.57;3.55;;;;;;;;;;5061084;28;20029;-80
2022/07/12 06:09:38;;;;;;;4.57;2.70;;;;;;;;;;5060268;28;20025;-77
2022/07/12 06:12:04;;;;;;;7.15;3.50;;;;;;;;;;5061526;28;20493;-76
2022/07/12 06:14:30;;;;;;;4.53;2.90;;;;;;;;;;5064308;28;20029;-78
2022/07/12 06:16:56;;;;;;;6.00;2.95;;;;;;;;;;5062094;28;20469;-78
2022/07/12 06:19:23;;;;;;;4.30;2.80;;;;;;;;;;5067976;28;20038;-78
2022/07/12 06:21:49;;;;;;;4.82;2.78;;;;;;;;;;5061549;28;20021;-79
2022/07/12 06:24:15;;;;;;;5.03;2.72;;;;;;;;;;5060464;28;20026;-79
2022/07/12 06:26:41;;;;;;;5.47;2.33;;;;;;;;;;5057707;28;20029;-80
2022/07/12 06:29:07;;;;;;;4.43;2.88;;;;;;;;;;5061599;28;20032;-79
2022/07/12 06:31:34;;;;;;;4.28;2.78;;;;;;;;;;5058404;28;20055;-77
2022/07/12 06:34:00;;;;;;;7.05;2.97;;;;;;;;;;5058524;28;20036;-78
2022/07/12 06:36:26;;;;;;;4.95;2.72;;;;;;;;;;5057551;28;20044;-77
2022/07/12 06:38:52;;;;;;;6.38;2.50;;;;;;;;;;5068785;28;20021;-77
2022/07/12 06:41:18;;;;;;;7.28;2.63;;;;;;;;;;5077715;28;20021;-76
2022/07/12 06:43:44;;;;;;;5.30;2.70;;;;;;;;;;5065282;28;20067;-79
2022/07/12 06:46:10;;;;;;;5.43;2.40;;;;;;;;;;5057996;28;20069;-79
2022/07/12 06:48:36;;;;;;;6.35;2.58;;;;;;;;;;5058012;28;20474;-80
2022/07/12 06:51:02;;;;;;;5.55;2.63;;;;;;;;;;5057652;28;20092;-78
2022/07/12 06:53:28;;;;;;;5.50;2.15;;;;;;;;;;5058098;28;20056;-78
2022/07/12 06:55:54;;;;;;;6.10;2.70;;;;;;;;;;5059028;28;20029;-79
2022/07/12 06:58:20;;;;;;;4.00;2.72;;;;;;;;;;5060944;28;20100;-78
2022/07/12 07:00:46;;;;;;;4.30;3.33;;;;;;;;;;5064887;28;20029;-78
2022/07/12 07:03:12;;;;;;;3.78;2.50;;;;;;;;;;5061915;28;20025;-78
2022/07/12 07:05:38;;;;;;;4.65;1.98;;;;;;;;;;5055341;28;20044;-78
2022/07/12 07:08:04;;;;;;;6.18;2.70;;;;;;;;;;5057086;28;20028;-80
2022/07/12 07:10:30;;;;;;;3.17;2.25;;;;;;;;;;5059865;28;20025;-77
2022/07/12 07:12:56;;;;;;;6.63;2.40;;;;;;;;;;5059934;28;20104;-75
2022/07/12 07:15:22;;;;;;;7.38;2.90;;;;;;;;;;5056439;28;20057;-77
2022/07/12 07:17:48;;;;;;;7.07;4.10;;;;;;;;;;5054610;28;20025;-78
2022/07/12 07:20:14;;;;;;;3.33;2.40;;;;;;;;;;5056874;28;20025;-77
2022/07/12 07:22:40;;;;;;;7.85;2.72;;;;;;;;;;5059479;28;20036;-78
2022/07/12 07:25:06;;;;;;;4.97;2.72;;;;;;;;;;5058742;28;20029;-77
2022/07/12 07:27:32;;;;;;;3.03;1.98;;;;;;;;;;5056573;28;20404;-77
2022/07/12 07:32:44;;;;;;;3.75;2.13;;;;;;;;;;5055682;28;20040;-77
2022/07/12 07:35:10;;;;;;;5.03;2.80;;;;;;;;;;5056883;28;20028;-76
2022/07/12 07:37:36;;;;;;;3.17;2.20;;;;;;;;;;5057810;28;20033;-78
2022/07/12 07:40:02;;;;;;;3.13;2.10;;;;;;;;;;5056102;28;20052;-77
2022/07/12 07:42:29;;;;;;;4.75;2.15;;;;;;;;;;5057391;28;20398;-77
2022/07/12 07:44:54;;;;;;;4.93;2.80;;;;;;;;;;5058739;28;20017;-77
2022/07/12 07:47:21;;;;;;;7.68;3.13;;;;;;;;;;5055610;28;20036;-78
2022/07/12 07:49:47;;;;;;;3.90;2.20;;;;;;;;;;5065337;28;20025;-78
2022/07/12 07:52:13;;;;;;;2.88;1.80;;;;;;;;;;5057433;28;20477;-77
2022/07/12 07:54:38;;;;;;;4.30;2.00;;;;;;;;;;5055671;28;20470;-78
2022/07/12 07:57:05;;;;;;;6.32;1.95;;;;;;;;;;5057183;28;20461;-78
2022/07/12 07:59:31;;;;;;;4.15;2.22;;;;;;;;;;5050041;28;20029;-77
2022/07/12 08:01:57;;;;;;;5.40;2.08;;;;;;;;;;5034044;28;20470;-77
2022/07/12 08:04:23;;;;;;;9.48;5.47;;;;;;;;;;5039198;28;20018;-77
2022/07/12 08:06:49;;;;;;;8.50;2.40;;;;;;;;;;5050197;28;20081;-77
2022/07/12 08:09:16;;;;;;;4.05;1.88;;;;;;;;;;5047399;28;20035;-77
2022/07/12 08:11:42;;;;;;;5.70;1.95;;;;;;;;;;5036170;28;20091;-78
2022/07/12 08:14:09;;;;;;;4.35;2.17;;;;;;;;;;5036456;28;20036;-78
2022/07/12 08:16:35;;;;;;;5.60;2.10;;;;;;;;;;5038738;28;20029;-76
2022/07/12 08:19:01;;;;;;;4.32;2.13;;;;;;;;;;5042083;28;20460;-78
2022/07/12 08:21:27;;;;;;;5.18;1.92;;;;;;;;;;5041766;28;20030;-76
2022/07/12 08:23:53;;;;;;;5.93;2.20;;;;;;;;;;5036973;28;20035;-78
2022/07/12 08:26:19;;;;;;;4.32;1.95;;;;;;;;;;5035107;28;20052;-78
2022/07/12 08:28:45;;;;;;;3.40;2.03;;;;;;;;;;5034716;28;20033;-77
2022/07/12 08:31:13;;;;;;;4.22;2.20;;;;;;;;;;5035690;28;20171;-78
2022/07/12 08:33:40;;;;;;;4.80;2.17;;;;;;;;;;5035745;28;20021;-77
2022/07/12 08:36:06;;;;;;;3.80;1.92;;;;;;;;;;5036577;28;20543;-78
2022/07/12 08:38:33;;;;;;;4.20;2.40;;;;;;;;;;5046561;28;20029;-78
2022/07/12 08:40:59;;;;;;;3.78;2.00;;;;;;;;;;5047871;28;20021;-79
2022/07/12 08:43:25;;;;;;;3.05;1.90;;;;;;;;;;5046626;28;20549;-79
2022/07/12 08:45:51;;;;;;;3.22;2.25;;;;;;;;;;5039013;28;20025;-79
2022/07/12 08:48:17;;;;;;;4.30;1.83;;;;;;;;;;5039740;28;20028;-78
2022/07/12 08:50:44;;;;;;;4.47;2.40;;;;;;;;;;5038676;28;20092;-77
2022/07/12 08:53:10;;;;;;;4.70;1.90;;;;;;;;;;5040990;28;20105;-77
2022/07/12 08:55:37;;;;;;;12.07;4.32;;;;;;;;;;5038258;28;20021;-77
2022/07/12 08:58:07;;;;;;;3.75;1.90;;;;;;;;;;5035274;28;20024;-77
2022/07/12 09:00:34;;;;;;;6.10;2.00;;;;;;;;;;5033788;28;20028;-78
2022/07/12 09:03:00;;;;;;;5.60;2.28;;;;;;;;;;5036598;28;20030;-77
2022/07/12 09:05:31;;;;;;;10.60;3.03;;;;;;;;;;5036419;28;20036;-77
2022/07/12 09:08:04;;;;;;;5.80;2.28;;;;;;;;;;5041976;28;20030;-79
2022/07/12 09:10:30;;;;;;;6.57;2.38;;;;;;;;;;5043234;28;20044;-77
2022/07/12 09:12:56;;;;;;;4.55;2.15;;;;;;;;;;5066062;28;20034;-78
2022/07/12 09:15:23;;;;;;;6.55;2.47;;;;;;;;;;5073206;28;20026;-77
2022/07/12 09:17:49;;;;;;;5.18;1.92;;;;;;;;;;5075301;28;20021;-78
2022/07/12 09:20:15;;;;;;;10.43;2.10;;;;;;;;;;5076483;28;20079;-77
2022/07/12 09:22:54;;;;;;;5.40;2.30;;;;;;;;;;5076587;28;20021;-75
2022/07/12 09:25:22;;;;;;;4.13;1.73;;;;;;;;;;5072507;28;20032;-75
2022/07/12 09:27:52;;;;;;;2.35;1.88;;;;;;;;;;5059712;28;20021;-77
2022/07/12 09:30:18;;;;;;;4.88;2.22;;;;;;;;;;5057451;28;20028;-77
2022/07/12 09:36:06;;;;;;;5.18;1.55;;;;;;;;;;5056786;28;20032;-76
2022/07/12 09:38:33;;;;;;;5.03;1.75;;;;;;;;;;5052796;28;20018;-77
2022/07/12 09:41:00;;;;;;;3.47;1.77;;;;;;;;;;5054168;28;20032;-78
2022/07/12 09:43:27;;;;;;;2.38;1.80;;;;;;;;;;5055987;28;20457;-78
2022/07/12 09:45:53;;;;;;;6.07;1.80;;;;;;;;;;5053726;28;20045;-78
2022/07/12 09:48:20;;;;;;;4.40;2.20;;;;;;;;;;5053362;28;20094;-78
2022/07/12 09:50:47;;;;;;;5.82;2.08;;;;;;;;;;5053061;28;20083;-77
2022/07/12 09:53:17;;;;;;;2.55;1.50;;;;;;;;;;5055286;28;20029;-76
2022/07/12 09:55:44;;;;;;;5.80;1.92;;;;;;;;;;5064969;28;20037;-77
2022/07/12 09:58:11;;;;;;;3.80;2.10;;;;;;;;;;5063374;28;20365;-78
2022/07/12 10:00:37;;;;;;;3.95;1.90;;;;;;;;;;5055893;28;20108;-77
2022/07/12 10:03:04;;;;;;;4.28;1.48;;;;;;;;;;5059779;28;20044;-77
2022/07/12 10:05:30;;;;;;;3.65;1.70;;;;;;;;;;5058675;28;20028;-77
2022/07/12 10:07:56;;;;;;;4.38;1.90;;;;;;;;;;5060118;28;20029;-77
2022/07/12 10:10:23;;;;;;;5.22;1.80;;;;;;;;;;5059484;28;20063;-78
2022/07/12 10:12:49;;;;;;;4.57;1.48;;;;;;;;;;5066087;28;20071;-81
2022/07/12 10:15:16;;;;;;;5.43;1.95;;;;;;;;;;5063977;28;20097;-78
2022/07/12 10:17:44;;;;;;;5.57;1.67;;;;;;;;;;5062446;28;20021;-77
2022/07/12 10:20:15;;;;;;;2.30;1.52;;;;;;;;;;5060493;28;20021;-79
2022/07/12 10:22:41;;;;;;;5.18;1.92;;;;;;;;;;5057655;28;20130;-80
2022/07/12 10:25:27;;;;;;;8.20;1.63;;;;;;;;;;5058436;28;20024;-78
2022/07/12 10:27:53;;;;;;;6.75;1.80;;;;;;;;;;5058218;28;20025;-78
2022/07/12 10:30:20;;;;;;;3.47;1.95;;;;;;;;;;5057198;28;20104;-77
2022/07/12 10:32:48;;;;;;;5.35;2.20;;;;;;;;;;5057477;28;20025;-78
2022/07/12 10:35:22;;;;;;;8.95;3.30;;;;;;;;;;5057930;28;20467;-78
2022/07/12 10:38:07;;;;;;;2.38;1.70;;;;;;;;;;5057256;28;20044;-76
2022/07/12 10:40:34;;;;;;;2.80;1.40;;;;;;;;;;5057352;28;20118;-78
2022/07/12 10:43:03;;;;;;;3.40;1.10;;;;;;;;;;5057436;28;20553;-77
2022/07/12 10:45:38;;;;;;;9.88;1.15;;;;;;;;;;5056694;28;20032;-78
2022/07/12 10:48:04;;;;;;;;;;;;;;;;;;5063651;28;20051;-78
2022/07/12 10:50:43;;;;;;;2.58;1.20;;;;;;;;;;5058906;28;19905;-77
2022/07/12 10:53:22;;;;;;;2.63;1.30;;;;;;;;;;5056386;28;20017;-77
2022/07/12 10:56:07;;;;;;;3.47;1.60;;;;;;;;;;5056756;28;20104;-77
2022/07/12 10:58:36;;;;;;;1.38;1.23;;;;;;;;;;5058366;28;20058;-78
2022/07/12 11:01:03;;;;;;;2.97;1.33;;;;;;;;;;5061129;28;20456;-78
2022/07/12 11:03:37;;;;;;;4.65;1.30;;;;;;;;;;5054584;28;20078;-78
2022/07/12 11:06:04;;;;;;;3.00;1.10;;;;;;;;;;5058801;28;20096;-77
2022/07/12 11:08:30;;;;;;;3.38;2.10;;;;;;;;;;5061683;28;20492;-78
2022/07/12 11:10:57;;;;;;;1.90;1.60;;;;;;;;;;5061908;28;20033;-78
2022/07/12 11:13:24;;;;;;;3.70;1.35;;;;;;;;;;5054545;28;20052;-77
2022/07/12 11:16:00;;;;;;;2.55;1.20;;;;;;;;;;5053295;28;20109;-76
2022/07/12 11:18:32;;;;;;;2.40;1.38;;;;;;;;;;5054709;28;20017;-76
2022/07/12 11:20:59;;;;;;;2.97;1.50;;;;;;;;;;5054155;28;20477;-75
2022/07/12 11:23:26;;;;;;;3.60;1.35;;;;;;;;;;5055298;28;20035;-78
2022/07/12 11:25:54;;;;;;;1.73;1.20;;;;;;;;;;5053518;28;20423;-77
2022/07/12 11:28:21;;;;;;;6.18;2.80;;;;;;;;;;5053814;28;20035;-77
2022/07/12 11:30:53;;;;;;;5.25;1.08;;;;;;;;;;5054525;28;20017;-77
2022/07/12 11:33:20;;;;;;;1.20;1.00;;;;;;;;;;5054461;28;20497;-77
2022/07/12 11:35:46;;;;;;;8.13;2.15;;;;;;;;;;5054306;28;20470;-78
2022/07/12 11:38:12;;;;;;;1.00;0.80;;;;;;;;;;5054081;28;20053;-77
2022/07/12 11:40:38;;;;;;;5.57;2.05;;;;;;;;;;5054830;28;20028;-76
2022/07/12 11:43:05;;;;;;;5.15;1.90;;;;;;;;;;5053609;28;20025;-77
2022/07/12 11:45:32;;;;;;;1.70;1.30;;;;;;;;;;5053775;28;20029;-78
2022/07/12 11:47:59;;;;;;;2.38;1.40;;;;;;;;;;5056965;28;20036;-77
2022/07/12 11:50:25;;;;;;;1.45;1.30;;;;;;;;;;5078727;28;20025;-76
2022/07/12 11:52:51;;;;;;;1.73;1.17;;;;;;;;;;5079244;28;20064;-76
2022/07/12 11:55:17;;;;;;;3.33;1.10;;;;;;;;;;5077503;28;20033;-75
2022/07/12 11:57:44;;;;;;;5.75;1.13;;;;;;;;;;5070721;28;20028;-76
2022/07/12 12:00:27;;;;;;;2.55;1.30;;;;;;;;;;5070383;28;20104;-76
2022/07/12 12:02:53;;;;;;;1.85;1.15;;;;;;;;;;5055463;28;20035;-77
2022/07/12 12:05:20;;;;;;;1.52;1.00;;;;;;;;;;5053506;28;20029;-77
2022/07/12 12:07:47;;;;;;;1.10;1.00;;;;;;;;;;5054642;28;20032;-77
2022/07/12 12:10:17;;;;;;;6.22;1.02;;;;;;;;;;5054587;28;20025;-78
2022/07/12 12:12:44;;;;;;;1.17;1.08;;;;;;;;;;5056596;28;20393;-78
2022/07/12 12:15:11;;;;;;;1.80;1.25;;;;;;;;;;5055413;28;20036;-78
2022/07/12 12:17:38;;;;;;;1.92;1.20;;;;;;;;;;5055127;28;20033;-77
2022/07/12 12:20:15;;;;;;;1.85;0.90;;;;;;;;;;5055597;28;20048;-77
2022/07/12 12:22:42;;;;;;;3.72;1.00;;;;;;;;;;5056506;28;20032;-78
2022/07/12 12:25:13;;;;;;;2.47;1.08;;;;;;;;;;5055839;28;20024;-78
2022/07/12 12:27:49;;;;;;;4.50;1.00;;;;;;;;;;5056234;28;20512;-78
2022/07/12 12:30:16;;;;;;;0.90;0.90;;;;;;;;;;5056161;28;20029;-78
2022/07/12 12:32:49;;;;;;;1.33;1.08;;;;;;;;;;5056535;28;20044;-76
2022/07/12 12:35:16;;;;;;;3.00;0.87;;;;;;;;;;5053603;28;20021;-80
2022/07/12 12:37:52;;;;;;;2.45;1.10;;;;;;;;;;5053693;28;20021;-77
2022/07/12 12:40:19;;;;;;;1.95;1.00;;;;;;;;;;5055273;28;20029;-77
2022/07/12 12:42:45;;;;;;;2.70;1.30;;;;;;;;;;5054206;28;20029;-76
2022/07/12 12:45:22;;;;;;;2.30;0.77;;;;;;;;;;5053055;28;20025;-77
2022/07/12 12:48:01;;;;;;;1.73;1.05;;;;;;;;;;5059764;28;20033;-78
2022/07/12 12:50:40;;;;;;;1.85;1.10;;;;;;;;;;5055865;28;20021;-77
2022/07/12 12:53:10;;;;;;;5.28;1.00;;;;;;;;;;5053890;28;20502;-78
2022/07/12 12:55:36;;;;;;;2.05;1.10;;;;;;;;;;5055192;28;20021;-79
2022/07/12 12:58:03;;;;;;;5.25;3.50;;;;;;;;;;5056274;28;20028;-78
2022/07/12 13:00:30;;;;;;;2.08;1.23;;;;;;;;;;5055643;28;20107;-77
2022/07/12 13:02:58;;;;;;;2.72;1.10;;;;;;;;;;5055083;28;20385;-78
2022/07/12 13:05:24;;;;;;;0.98;0.90;;;;;;;;;;5056263;28;20027;-78
2022/07/12 13:07:50;;;;;;;1.83;1.10;;;;;;;;;;5054592;28;20441;-78
2022/07/12 13:10:16;;;;;;;2.10;0.80;;;;;;;;;;5055332;28;20033;-77
2022/07/12 13:12:43;;;;;;;2.00;0.80;;;;;;;;;;5055958;28;20184;-78
2022/07/12 13:15:09;;;;;;;0.93;0.75;;;;;;;;;;5055840;28;20377;-79
2022/07/12 13:17:35;;;;;;;2.40;0.70;;;;;;;;;;5053341;28;20517;-79
2022/07/12 13:20:01;;;;;;;2.42;1.00;;;;;;;;;;5055214;28;20036;-78
2022/07/12 13:22:27;;;;;;;2.20;0.90;;;;;;;;;;5059604;28;20028;-78
2022/07/12 13:24:53;;;;;;;4.70;1.38;;;;;;;;;;5060009;28;20032;-79
2022/07/12 13:27:19;;;;;;;0.90;0.68;;;;;;;;;;5052665;28;20025;-78
2022/07/12 13:29:45;;;;;;;0.93;0.75;;;;;;;;;;5056293;28;20029;-79
2022/07/12 13:32:11;;;;;;;1.85;0.88;;;;;;;;;;5065883;28;20041;-77
2022/07/12 13:34:37;;;;;;;0.90;0.70;;;;;;;;;;5067633;28;20032;-78
2022/07/12 13:37:03;;;;;;;1.20;0.93;;;;;;;;;;5057568;28;20470;-78
2022/07/12 13:42:13;;;;;;;1.90;0.80;;;;;;;;;;5056135;28;20032;-78
2022/07/12 13:44:39;;;;;;;1.88;0.88;;;;;;;;;;5053714;28;20355;-78
2022/07/12 13:47:05;;;;;;;1.05;0.60;;;;;;;;;;5059141;28;20029;-78
2022/07/12 13:49:31;;;;;;;0.93;0.60;;;;;;;;;;5060687;28;20025;-78
2022/07/12 13:51:58;;;;;;;0.85;0.70;;;;;;;;;;5059722;28;20060;-76
2022/07/12 13:54:24;;;;;;;1.33;0.95;;;;;;;;;;5060839;28;20382;-78
2022/07/12 13:56:50;;;;;;;0.90;0.70;;;;;;;;;;5049066;28;20027;-77
2022/07/12 13:59:16;;;;;;;4.70;0.80;;;;;;;;;;5068069;28;20082;-77
2022/07/12 14:01:42;;;;;;;2.63;0.90;;;;;;;;;;5069908;28;20063;-77
2022/07/12 14:04:07;;;;;;;1.63;0.80;;;;;;;;;;5064865;28;20045;-79
2022/07/12 14:06:34;;;;;;;1.83;0.80;;;;;;;;;;5064637;28;20362;-77
2022/07/12 14:08:59;;;;;;;2.05;1.10;;;;;;;;;;5064567;28;20021;-77
2022/07/12 14:11:26;;;;;;;5.00;1.10;;;;;;;;;;5064985;28;20052;-76
2022/07/12 14:13:51;;;;;;;4.22;1.63;;;;;;;;;;5060760;28;20037;-77
2022/07/12 14:16:18;;;;;;;3.42;0.75;;;;;;;;;;5061376;28;20568;-77
2022/07/12 14:18:44;;;;;;;3.28;0.82;;;;;;;;;;5066297;28;20096;-79
2022/07/12 14:21:10;;;;;;;1.92;1.10;;;;;;;;;;5072410;28;20033;-78
2022/07/12 14:23:37;;;;;;;1.92;0.90;;;;;;;;;;5075395;28;20090;-77
2022/07/12 14:26:03;;;;;;;2.90;0.95;;;;;;;;;;5075254;28;20028;-77
2022/07/12 14:28:29;;;;;;;2.72;1.00;;;;;;;;;;5077547;28;20029;-76
2022/07/12 14:30:55;;;;;;;3.88;0.90;;;;;;;;;;5077838;28;20036;-78
2022/07/12 14:33:21;;;;;;;3.72;1.73;;;;;;;;;;5070329;28;20111;-78
2022/07/12 14:35:47;;;;;;;4.18;1.23;;;;;;;;;;5059736;28;20433;-78
2022/07/12 14:38:13;;;;;;;2.15;1.10;;;;;;;;;;5059768;28;20120;-77
2022/07/12 14:40:39;;;;;;;2.88;1.00;;;;;;;;;;5057101;28;20071;-78
2022/07/12 14:43:05;;;;;;;3.58;0.80;;;;;;;;;;5056845;28;20029;-76
2022/07/12 14:45:31;;;;;;;1.23;0.80;;;;;;;;;;5058078;28;20151;-77
2022/07/12 14:47:57;;;;;;;1.45;0.85;;;;;;;;;;5058117;28;20044;-76
2022/07/12 14:50:23;;;;;;;3.97;1.00;;;;;;;;;;5059484;28;20045;-77
2022/07/12 14:52:49;;;;;;;0.82;0.70;;;;;;;;;;5058411;28;20035;-78
2022/07/12 14:55:15;;;;;;;3.92;0.90;;;;;;;;;;5057400;28;20069;-79
2022/07/12 14:57:41;;;;;;;2.60;1.25;;;;;;;;;;5057249;28;20385;-76